createdAt,value
2022-08-20T00:01:06.543Z,29.20
2022-08-20T00:03:37.577Z,29.47
2022-08-20T00:06:12.925Z,28.87
2022-08-20T00:08:40.565Z,29.17
2022-08-20T00:11:09.933Z,30.10
2022-08-20T00:13:43.324Z,29.85
2022-08-20T00:16:12.070Z,31.13
2022-08-20T00:18:40.221Z,31.70
2022-08-20T00:21:09.997Z,31.27
2022-08-20T00:23:38.507Z,30.47
2022-08-20T00:26:07.016Z,33.50
2022-08-20T00:28:34.273Z,34.13
2022-08-20T00:31:04.740Z,34.60
2022-08-20T00:33:32.438Z,30.97
2022-08-20T00:36:06.553Z,31.80
2022-08-20T00:38:34.778Z,31.43
2022-08-20T00:41:02.461Z,30.53
2022-08-20T00:43:38.213Z,29.30
2022-08-20T00:46:16.297Z,29.10
2022-08-20T00:48:47.879Z,30.33
2022-08-20T00:51:27.330Z,28.20
2022-08-20T00:54:03.080Z,27.53
2022-08-20T00:56:36.392Z,28.83
2022-08-20T00:59:07.733Z,26.93
2022-08-20T01:01:39.493Z,26.70
2022-08-20T01:04:24.920Z,25.60
2022-08-20T01:06:52.560Z,26.10
2022-08-20T01:09:49.657Z,25.93
2022-08-20T01:12:09.995Z,27.20
2022-08-20T01:14:46.591Z,27.83
2022-08-20T01:17:17.859Z,26.13
2022-08-20T01:20:20.257Z,25.67
2022-08-20T01:23:17.241Z,26.70
2022-08-20T01:26:03.633Z,24.90
2022-08-20T01:28:34.457Z,23.53
2022-08-20T01:31:02.112Z,25.07
2022-08-20T01:33:29.235Z,24.00
2022-08-20T01:35:56.260Z,24.40
2022-08-20T01:38:23.537Z,24.07
2022-08-20T01:41:28.705Z,22.03
2022-08-20T01:43:57.241Z,21.43
2022-08-20T01:46:28.683Z,20.70
2022-08-20T01:48:57.109Z,19.97
2022-08-20T01:51:28.658Z,18.47
2022-08-20T01:53:57.728Z,18.27
2022-08-20T01:56:28.308Z,17.43
2022-08-20T01:58:59.038Z,17.10
2022-08-20T02:01:46.794Z,16.97
2022-08-20T02:04:17.023Z,16.70
2022-08-20T02:06:56.751Z,16.60
2022-08-20T02:09:29.549Z,17.03
2022-08-20T02:11:58.057Z,17.10
2022-08-20T02:14:25.221Z,17.67
2022-08-20T02:16:54.917Z,17.87
2022-08-20T02:19:40.237Z,17.83
2022-08-20T02:22:49.899Z,17.40
2022-08-20T02:25:18.660Z,17.20
2022-08-20T02:27:47.013Z,15.20
2022-08-20T02:30:27.880Z,15.43
2022-08-20T02:32:57.288Z,12.97
2022-08-20T02:35:25.648Z,11.50
2022-08-20T02:37:53.404Z,21.87
2022-08-20T02:40:30.348Z,14.17
2022-08-20T02:43:02.021Z,55.53
2022-08-20T02:45:32.170Z,9.80
2022-08-20T02:47:59.409Z,18.70
2022-08-20T02:50:27.275Z,5.40
2022-08-20T02:52:54.894Z,4.33
2022-08-20T02:55:27.207Z,3.80
2022-08-20T02:57:59.156Z,3.80
2022-08-20T03:00:32.115Z,3.90
2022-08-20T03:03:10.430Z,3.77
2022-08-20T03:05:39.490Z,3.93
2022-08-20T03:08:09.098Z,4.00
2022-08-20T03:10:37.957Z,3.80
2022-08-20T03:13:06.317Z,4.97
2022-08-20T03:15:34.480Z,4.67
2022-08-20T03:18:01.583Z,4.33
2022-08-20T03:20:28.826Z,5.03
2022-08-20T03:22:56.115Z,5.10
2022-08-20T03:25:23.870Z,6.30
2022-08-20T03:27:54.110Z,10.93
2022-08-20T03:30:22.652Z,27.53
2022-08-20T03:32:49.673Z,21.80
2022-08-20T03:35:18.194Z,22.37
2022-08-20T03:37:48.925Z,23.10
2022-08-20T03:40:23.515Z,7.10
2022-08-20T03:42:54.107Z,7.90
2022-08-20T03:45:23.424Z,7.10
2022-08-20T03:47:51.901Z,7.83
2022-08-20T03:50:23.059Z,8.50
2022-08-20T03:52:51.749Z,8.63
2022-08-20T03:55:19.197Z,9.33
2022-08-20T03:57:49.765Z,9.37
2022-08-20T04:00:20.795Z,10.10
2022-08-20T04:02:47.982Z,11.07
2022-08-20T04:05:14.959Z,11.03
2022-08-20T04:07:42.410Z,12.10
2022-08-20T04:10:11.320Z,12.40
2022-08-20T04:12:51.424Z,12.90
2022-08-20T04:15:20.738Z,53.30
2022-08-20T04:17:50.304Z,28.03
2022-08-20T04:20:23.416Z,109.07
2022-08-20T04:22:58.549Z,15.33
2022-08-20T04:25:29.848Z,17.10
2022-08-20T04:27:58.599Z,18.03
2022-08-20T04:30:26.329Z,18.30
2022-08-20T04:32:53.310Z,19.63
2022-08-20T04:35:21.357Z,21.80
2022-08-20T04:37:48.694Z,20.93
2022-08-20T04:40:37.886Z,21.70
2022-08-20T04:43:05.748Z,22.43
2022-08-20T04:45:33.309Z,23.83
2022-08-20T04:48:05.662Z,23.07
2022-08-20T04:50:35.753Z,23.80
2022-08-20T04:53:04.897Z,26.27
2022-08-20T04:55:33.990Z,25.03
2022-08-20T04:58:13.874Z,26.27
2022-08-20T05:00:41.037Z,25.90
2022-08-20T05:03:08.180Z,27.07
2022-08-20T05:05:35.795Z,27.00
2022-08-20T05:08:02.936Z,24.70
2022-08-20T05:10:29.939Z,27.80
2022-08-20T05:12:57.444Z,48.90
2022-08-20T05:15:26.186Z,28.83
2022-08-20T05:18:01.112Z,27.47
2022-08-20T05:20:31.463Z,26.03
2022-08-20T05:23:00.293Z,26.57
2022-08-20T05:25:31.878Z,26.67
2022-08-20T05:28:12.484Z,25.83
2022-08-20T05:30:43.148Z,26.23
2022-08-20T05:33:14.073Z,27.17
2022-08-20T05:35:41.549Z,26.53
2022-08-20T05:38:11.804Z,27.70
2022-08-20T05:40:40.672Z,27.27
2022-08-20T05:43:07.914Z,28.33
2022-08-20T05:45:37.577Z,29.43
2022-08-20T05:48:17.493Z,28.07
2022-08-20T05:50:46.467Z,29.07
2022-08-20T05:53:13.666Z,30.00
2022-08-20T05:55:41.038Z,28.33
2022-08-20T05:58:19.810Z,28.70
2022-08-20T06:00:48.518Z,27.53
2022-08-20T06:03:34.725Z,27.90
2022-08-20T06:06:04.448Z,28.57
2022-08-20T06:08:44.932Z,27.60
2022-08-20T06:11:11.766Z,38.07
2022-08-20T06:13:38.573Z,27.93
2022-08-20T06:16:06.808Z,27.67
2022-08-20T06:18:33.840Z,26.40
2022-08-20T06:21:00.696Z,25.40
2022-08-20T06:23:27.756Z,25.70
2022-08-20T06:26:14.687Z,26.10
2022-08-20T06:28:41.565Z,25.37
2022-08-20T06:31:09.440Z,25.13
2022-08-20T06:33:36.485Z,26.00
2022-08-20T06:36:03.808Z,26.43
2022-08-20T06:38:33.024Z,28.63
2022-08-20T06:41:06.157Z,28.53
2022-08-20T06:43:34.214Z,28.73
2022-08-20T06:46:02.369Z,27.73
2022-08-20T06:48:29.349Z,50.83
2022-08-20T06:50:56.361Z,28.80
2022-08-20T06:53:23.183Z,27.57
2022-08-20T06:55:55.221Z,28.40
2022-08-20T06:58:37.803Z,29.93
2022-08-20T07:01:11.654Z,28.33
2022-08-20T07:03:54.332Z,28.47
2022-08-20T07:06:25.862Z,28.93
2022-08-20T07:08:54.072Z,27.33
2022-08-20T07:11:26.668Z,28.20
2022-08-20T07:13:56.728Z,26.33
2022-08-20T07:16:24.550Z,27.00
2022-08-20T07:18:51.383Z,25.10
2022-08-20T07:21:18.221Z,24.40
2022-08-20T07:23:45.400Z,21.63
2022-08-20T07:26:13.241Z,20.10
2022-08-20T07:28:40.562Z,20.60
2022-08-20T07:31:26.248Z,19.17
2022-08-20T07:33:54.337Z,17.77
2022-08-20T07:36:21.756Z,18.70
2022-08-20T07:38:51.054Z,18.20
2022-08-20T07:41:18.965Z,16.77
2022-08-20T07:43:46.476Z,18.13
2022-08-20T07:46:16.403Z,18.57
2022-08-20T07:48:50.405Z,18.70
2022-08-20T07:51:19.740Z,18.73
2022-08-20T07:53:47.751Z,47.10
2022-08-20T07:56:19.528Z,46.60
2022-08-20T07:58:50.563Z,16.63
2022-08-20T08:01:20.109Z,16.50
2022-08-20T08:03:50.379Z,16.90
2022-08-20T08:06:29.347Z,16.07
2022-08-20T08:09:14.184Z,16.27
2022-08-20T08:11:50.226Z,17.87
2022-08-20T08:14:23.438Z,46.40
2022-08-20T08:16:53.017Z,22.03
2022-08-20T08:19:20.730Z,19.23
2022-08-20T08:21:47.672Z,19.80
2022-08-20T08:24:19.924Z,18.37
2022-08-20T08:26:50.460Z,18.85
2022-08-20T08:29:17.535Z,17.20
2022-08-20T08:31:44.853Z,15.10
2022-08-20T08:34:11.919Z,15.93
2022-08-20T08:36:39.479Z,16.03
2022-08-20T08:39:06.837Z,17.20
2022-08-20T08:41:48.497Z,16.87
2022-08-20T08:44:29.480Z,17.50
2022-08-20T08:47:13.889Z,18.90
2022-08-20T08:49:41.097Z,24.23
2022-08-20T08:52:30.125Z,18.43
2022-08-20T08:55:05.321Z,15.95
2022-08-20T08:57:32.618Z,15.25
2022-08-20T09:00:05.962Z,13.03
2022-08-20T09:02:35.362Z,12.87
2022-08-20T09:05:05.160Z,11.30
2022-08-20T09:07:33.755Z,12.00
2022-08-20T09:10:02.429Z,11.70
2022-08-20T09:12:29.455Z,13.77
2022-08-20T09:14:56.698Z,11.60
2022-08-20T09:17:24.045Z,9.57
2022-08-20T09:19:52.325Z,7.47
2022-08-20T09:22:22.583Z,7.10
2022-08-20T09:24:50.882Z,7.50
2022-08-20T09:27:18.804Z,6.63
2022-08-20T09:29:45.825Z,5.27
2022-08-20T09:32:21.414Z,4.80
2022-08-20T09:34:52.608Z,5.97
2022-08-20T09:37:19.742Z,6.23
2022-08-20T09:39:48.250Z,7.33
2022-08-20T09:42:25.059Z,7.65
2022-08-20T09:44:52.104Z,6.47
2022-08-20T10:29:37.413Z,3.70
2022-08-20T10:37:52.305Z,3.63
2022-08-20T10:40:20.096Z,3.97
2022-08-20T10:45:28.389Z,4.00
2022-08-20T10:47:59.119Z,3.30
2022-08-20T10:53:07.639Z,3.70
2022-08-20T10:55:34.924Z,3.17
2022-08-20T10:58:05.109Z,3.33
2022-08-20T11:00:33.571Z,4.10
2022-08-20T11:03:04.816Z,3.13
2022-08-20T11:05:32.193Z,3.20
2022-08-20T11:08:25.120Z,3.55
2022-08-20T11:11:02.078Z,3.20
2022-08-20T11:13:31.422Z,3.35
2022-08-20T11:16:11.077Z,3.85
2022-08-20T11:21:13.527Z,3.60
2022-08-20T11:23:40.736Z,3.47
2022-08-20T11:26:08.719Z,3.53
2022-08-20T11:28:35.735Z,3.83
2022-08-20T11:31:03.110Z,3.67
2022-08-20T11:33:30.269Z,3.08
2022-08-20T11:36:06.156Z,3.40
2022-08-20T11:38:33.265Z,3.03
2022-08-20T11:41:00.220Z,3.17
2022-08-20T11:43:27.335Z,3.08
2022-08-20T11:45:56.279Z,2.95
2022-08-20T11:48:26.110Z,2.58
2022-08-20T11:50:53.299Z,2.53
2022-08-20T11:53:20.237Z,2.72
2022-08-20T11:55:49.450Z,2.90
2022-08-20T11:58:16.530Z,2.33
2022-08-20T12:00:43.807Z,2.15
2022-08-20T12:03:11.822Z,2.40
2022-08-20T12:05:41.875Z,2.60
2022-08-20T12:08:09.485Z,3.08
2022-08-20T12:10:40.341Z,2.88
2022-08-20T12:13:08.350Z,2.53
2022-08-20T12:15:37.126Z,3.00
2022-08-20T12:18:08.447Z,8.25
2022-08-20T12:20:37.203Z,2.80
2022-08-20T12:29:42.828Z,2.75
2022-08-20T12:32:10.315Z,2.95
2022-08-20T12:34:39.405Z,2.27
2022-08-20T12:37:15.958Z,2.45
2022-08-20T12:39:46.897Z,2.60
2022-08-20T12:42:15.255Z,3.35
2022-08-20T12:44:43.304Z,2.75
2022-08-20T12:47:26.737Z,3.10
2022-08-20T12:49:57.238Z,2.75
2022-08-20T12:52:26.989Z,2.67
2022-08-20T12:54:55.333Z,2.80
2022-08-20T12:57:32.314Z,2.92
2022-08-20T13:01:12.816Z,2.95
2022-08-20T13:04:00.664Z,2.67
2022-08-20T13:06:27.762Z,2.80
2022-08-20T13:08:55.389Z,2.10
2022-08-20T13:11:22.878Z,2.40
2022-08-20T13:13:59.293Z,2.75
2022-08-20T13:16:26.223Z,2.30
2022-08-20T13:18:53.243Z,2.45
2022-08-20T13:21:23.902Z,2.35
2022-08-20T13:23:51.383Z,2.58
2022-08-20T13:26:18.718Z,2.75
2022-08-20T13:28:45.659Z,2.83
2022-08-20T13:31:12.571Z,2.45
2022-08-20T13:33:39.858Z,2.28
2022-08-20T13:36:06.926Z,2.47
2022-08-20T13:38:33.757Z,2.33
2022-08-20T13:41:00.772Z,2.60
2022-08-20T13:43:27.731Z,2.70
2022-08-20T13:45:54.642Z,2.60
2022-08-20T13:48:21.668Z,2.10
2022-08-20T13:50:48.877Z,2.40
2022-08-20T13:53:17.167Z,2.20
2022-08-20T13:55:44.639Z,2.60
2022-08-20T13:58:49.869Z,2.50
2022-08-20T14:01:20.183Z,2.15
2022-08-20T14:03:48.045Z,2.67
2022-08-20T14:06:15.529Z,2.40
2022-08-20T14:08:42.474Z,2.15
2022-08-20T14:11:12.801Z,2.35
2022-08-20T14:13:44.776Z,2.75
2022-08-20T14:16:25.465Z,2.60
2022-08-20T14:18:56.396Z,2.30
2022-08-20T14:21:23.830Z,2.22
2022-08-20T14:23:50.825Z,2.63
2022-08-20T14:26:17.824Z,9.13
2022-08-20T14:28:52.759Z,2.17
2022-08-20T14:34:29.878Z,2.20
2022-08-20T14:36:57.178Z,2.25
2022-08-20T14:39:27.819Z,2.47
2022-08-20T14:41:54.798Z,2.25
2022-08-20T14:44:21.874Z,2.30
2022-08-20T14:46:49.058Z,2.50
2022-08-20T14:49:16.247Z,2.10
2022-08-20T14:51:43.462Z,2.03
2022-08-20T14:54:10.511Z,2.30
2022-08-20T14:56:37.401Z,2.42
2022-08-20T14:59:04.522Z,2.38
2022-08-20T15:01:31.519Z,2.20
2022-08-20T15:03:58.522Z,2.55
2022-08-20T15:06:25.484Z,2.25
2022-08-20T15:08:52.609Z,2.20
2022-08-20T15:11:19.650Z,2.42
2022-08-20T15:13:46.630Z,1.95
2022-08-20T15:16:13.657Z,2.15
2022-08-20T15:18:43.540Z,7.07
2022-08-20T15:21:10.673Z,4.47
2022-08-20T15:23:37.732Z,2.10
2022-08-20T15:26:06.830Z,2.10
2022-08-20T15:28:33.740Z,2.00
2022-08-20T15:31:00.691Z,2.50
2022-08-20T15:33:27.666Z,2.30
2022-08-20T15:35:54.669Z,2.28
2022-08-20T15:38:21.767Z,2.53
2022-08-20T15:40:49.575Z,2.28
2022-08-20T15:43:16.581Z,2.25
2022-08-20T15:45:43.653Z,2.20
2022-08-20T15:53:43.138Z,2.13
2022-08-20T15:56:25.341Z,26.88
2022-08-20T15:59:05.798Z,2.75
2022-08-20T16:01:42.905Z,2.45
2022-08-20T16:04:29.337Z,2.60
2022-08-20T16:07:01.816Z,2.10
2022-08-20T16:09:50.280Z,2.50
2022-08-20T16:12:24.272Z,2.50
2022-08-20T16:14:57.270Z,1.95
2022-08-20T16:17:43.893Z,2.33
2022-08-20T16:20:18.946Z,2.00
2022-08-20T16:22:46.989Z,1.90
2022-08-20T16:25:15.794Z,2.00
2022-08-20T16:28:08.011Z,2.28
2022-08-20T16:30:47.989Z,2.08
2022-08-20T16:33:25.284Z,3.58
2022-08-20T16:35:59.190Z,7.07
2022-08-20T16:39:05.120Z,2.53
2022-08-20T16:41:53.738Z,2.22
2022-08-20T16:44:44.895Z,2.28
2022-08-20T16:47:26.623Z,2.25
2022-08-20T16:50:17.286Z,1.98
2022-08-20T16:52:46.338Z,2.17
2022-08-20T16:55:14.269Z,2.63
2022-08-20T16:57:41.517Z,2.38
2022-08-20T17:00:20.355Z,2.63
2022-08-20T17:02:57.130Z,2.20
2022-08-20T17:05:28.758Z,2.47
2022-08-20T17:08:13.875Z,2.65
2022-08-20T17:10:54.469Z,2.60
2022-08-20T17:13:30.488Z,2.90
2022-08-20T17:16:04.654Z,2.50
2022-08-20T17:18:38.154Z,2.50
2022-08-20T17:21:15.466Z,2.03
2022-08-20T17:23:56.121Z,2.33
2022-08-20T17:26:32.419Z,3.90
2022-08-20T17:29:14.898Z,4.38
2022-08-20T17:31:46.492Z,6.63
2022-08-20T17:34:20.244Z,6.28
2022-08-20T17:36:54.487Z,2.60
2022-08-20T17:39:23.772Z,2.22
2022-08-20T17:42:16.774Z,1.80
2022-08-20T17:44:52.534Z,2.10
2022-08-20T17:47:35.305Z,2.20
2022-08-20T17:50:15.910Z,8.63
2022-08-20T17:53:04.860Z,4.45
2022-08-20T17:55:34.540Z,2.00
2022-08-20T17:58:04.845Z,1.88
2022-08-20T18:00:32.903Z,1.90
2022-08-20T18:03:19.093Z,1.80
2022-08-20T18:05:57.762Z,1.98
2022-08-20T18:08:37.761Z,1.90
2022-08-20T18:11:22.396Z,1.83
2022-08-20T18:14:26.777Z,3.10
2022-08-20T18:17:05.014Z,2.20
2022-08-20T18:19:40.851Z,2.05
2022-08-20T18:22:32.894Z,2.10
2022-08-20T18:25:25.121Z,2.35
2022-08-20T18:27:56.022Z,2.50
2022-08-20T18:30:25.059Z,2.20
2022-08-20T18:33:04.300Z,2.53
2022-08-20T18:35:45.815Z,2.17
2022-08-20T18:38:47.888Z,2.35
2022-08-20T18:42:11.137Z,2.33
2022-08-20T18:44:44.020Z,1.90
2022-08-20T18:47:32.776Z,1.90
2022-08-20T18:50:20.476Z,2.22
2022-08-20T18:53:06.871Z,2.45
2022-08-20T18:55:37.770Z,2.22
2022-08-20T18:58:08.094Z,2.20
2022-08-20T19:00:44.359Z,2.63
2022-08-20T19:03:32.145Z,2.30
2022-08-20T19:06:08.545Z,2.53
2022-08-20T19:09:26.797Z,2.80
2022-08-20T19:12:09.585Z,2.70
2022-08-20T19:14:58.571Z,2.70
2022-08-20T19:17:44.502Z,2.85
2022-08-20T19:20:19.172Z,2.55
2022-08-20T19:22:49.725Z,2.70
2022-08-20T19:25:30.226Z,2.38
2022-08-20T19:28:00.239Z,2.55
2022-08-20T19:30:33.362Z,2.45
2022-08-20T19:33:02.083Z,2.40
2022-08-20T19:35:29.452Z,2.53
2022-08-20T19:37:57.032Z,3.40
2022-08-20T19:40:35.159Z,4.97
2022-08-20T19:43:15.371Z,4.80
2022-08-20T19:46:03.713Z,4.60
2022-08-20T19:49:01.275Z,3.50
2022-08-20T19:52:15.524Z,4.13
2022-08-20T20:00:51.628Z,3.73
2022-08-20T20:06:33.064Z,5.70
2022-08-20T20:10:32.165Z,4.77
2022-08-20T20:16:35.350Z,4.40
2022-08-20T20:19:31.789Z,5.03
2022-08-20T20:22:29.892Z,5.30
2022-08-20T20:25:25.259Z,5.40
2022-08-20T20:27:56.919Z,5.10
2022-08-20T20:30:33.279Z,5.03
2022-08-20T20:33:10.580Z,5.07
2022-08-20T20:35:41.219Z,5.23
2022-08-20T20:38:52.910Z,4.63
2022-08-20T20:41:24.883Z,4.73
2022-08-20T20:44:25.812Z,3.80
2022-08-20T20:47:01.875Z,3.33
2022-08-20T20:49:37.586Z,3.47
2022-08-20T20:52:17.618Z,3.23
2022-08-20T20:54:47.277Z,3.50
2022-08-20T20:57:37.744Z,2.93
2022-08-20T21:00:21.959Z,3.00
2022-08-20T21:02:57.961Z,3.13
2022-08-20T21:05:29.361Z,2.70
2022-08-20T21:08:13.218Z,2.80
2022-08-20T21:46:47.037Z,3.87
2022-08-20T21:51:56.936Z,3.43
2022-08-20T21:54:25.345Z,4.13
2022-08-20T21:56:58.129Z,3.83
2022-08-20T21:59:26.043Z,4.13
2022-08-20T22:01:53.344Z,4.70
2022-08-20T22:04:20.722Z,4.77
2022-08-20T22:06:48.496Z,4.27
2022-08-20T22:09:16.063Z,4.83
2022-08-20T22:11:43.018Z,4.67
2022-08-20T22:14:12.625Z,4.73
2022-08-20T22:16:42.335Z,4.57
2022-08-20T22:19:15.945Z,4.60
2022-08-20T22:21:43.456Z,4.50
2022-08-20T22:24:13.500Z,4.87
2022-08-20T22:26:42.251Z,5.50
2022-08-20T22:29:11.088Z,5.97
2022-08-20T22:31:41.195Z,5.10
2022-08-20T22:34:10.299Z,5.00
2022-08-20T22:36:37.299Z,5.07
2022-08-20T22:39:04.982Z,5.07
2022-08-20T22:41:31.950Z,5.33
2022-08-20T22:43:58.881Z,5.17
2022-08-20T22:46:33.791Z,4.70
2022-08-20T22:49:01.262Z,4.60
2022-08-20T22:51:31.810Z,4.47
2022-08-20T22:54:04.285Z,5.00
2022-08-20T22:56:31.456Z,4.57
2022-08-20T22:58:59.679Z,5.00
2022-08-20T23:01:28.672Z,4.60
2022-08-20T23:04:01.982Z,4.93
2022-08-20T23:06:30.051Z,4.80
2022-08-20T23:08:57.580Z,5.20
2022-08-20T23:11:26.508Z,5.13
2022-08-20T23:13:53.745Z,5.20
2022-08-20T23:16:20.853Z,5.50
2022-08-20T23:18:47.968Z,5.47
2022-08-20T23:21:15.394Z,4.63
2022-08-20T23:23:42.476Z,4.43
2022-08-20T23:26:11.892Z,4.47
2022-08-20T23:28:38.833Z,4.53
2022-08-20T23:52:41.524Z,4.80
2022-08-20T23:55:10.293Z,5.23
